Husuiyu0018 — 0018 — position and weather

sailwx.info

Track history (hours):
 
Tides and Currents Weather Stations Pressure Air Temp Water Temp Dewpoint Dewpoint Depression Visibility Wind Speed Wind Dir Waves Ship Positions

Husuiyu0018

Last reported at 2014-Oct-30 16:09 UTC. Time now 2014-Nov-01 14:08 UTC.
Position N 32°01' E 120°49'.

Length 30 m.

Type: Fishing. MMSI: 412212538.

Date/timePositionNaut miles runAvg speedWind from/ knotsBaromVisibWave heightAir tempDewpointWater temp
2014-Oct-30 16:09N 32°01' E 120°49'3 5.7
2014-Oct-30 15:33N 32°00' E 120°45'7 7.0
2014-Oct-30 14:33N 32°00' E 120°37'5 5.5
2014-Oct-30 13:33N 32°04' E 120°32'2 0.3
2014-Oct-30 07:09N 32°05' E 120°30'3 4.4
2014-Oct-30 06:33N 32°03' E 120°33'5 5.0
2014-Oct-30 05:33N 32°00' E 120°38'6 5.4
2014-Oct-30 04:32N 32°01' E 120°44'  
2014-Oct-25 16:33N 32°01' E 120°48'9 8.5
2014-Oct-25 15:32N 31°60' E 120°38'7 7.3
2014-Oct-25 14:33N 32°02' E 120°30'7 7.1
2014-Oct-25 13:33N 31°59' E 120°22'7 7.5
2014-Oct-25 12:33N 31°56' E 120°14'7 6.7
2014-Oct-25 11:32N 31°57' E 120°06'6 5.6
2014-Oct-25 10:27N 31°59' E 119°60'  
Track history (hours):
 
Tides and Currents Weather Stations Pressure Air Temp Water Temp Dewpoint Dewpoint Depression Visibility Wind Speed Wind Dir Waves Ship Positions

Husuiyu0018

Last reported at 2014-Oct-30 16:09 UTC. Time now 2014-Nov-01 14:08 UTC.
Position N 32°01' E 120°49'.

Length 30 m.

Type: Fishing. MMSI: 412212538.

Date/timePositionNaut miles runAvg speedWind from/ knotsBaromVisibWave heightAir tempDewpointWater temp
2014-Oct-30 16:09N 32°01' E 120°49'3 5.7
2014-Oct-30 15:33N 32°00' E 120°45'7 7.0
2014-Oct-30 14:33N 32°00' E 120°37'5 5.5
2014-Oct-30 13:33N 32°04' E 120°32'2 0.3
2014-Oct-30 07:09N 32°05' E 120°30'3 4.4
2014-Oct-30 06:33N 32°03' E 120°33'5 5.0
2014-Oct-30 05:33N 32°00' E 120°38'6 5.4
2014-Oct-30 04:32N 32°01' E 120°44'  
2014-Oct-25 16:33N 32°01' E 120°48'9 8.5
2014-Oct-25 15:32N 31°60' E 120°38'7 7.3
2014-Oct-25 14:33N 32°02' E 120°30'7 7.1
2014-Oct-25 13:33N 31°59' E 120°22'7 7.5
2014-Oct-25 12:33N 31°56' E 120°14'7 6.7
2014-Oct-25 11:32N 31°57' E 120°06'6 5.6
2014-Oct-25 10:27N 31°59' E 119°60'  

Dump ship's entire track history